CTSO2: Bird Creek At Catoosa

Data processed at Sat Dec 09 2017 23:31


All information presented herein is the property of the government of the United States of America and may be revised or deleted at any time without prior notice.
Dissemination of this information without the expressed written consent of the Public Affairs Office, Tulsa District U.S. Army Corps of Engineers is strictly prohibited.
These data are gathered electronically and, as presented, have not undergone any form of quality control. These data are not guaranteed to be valid or correct.
Go to home page.
Go to station list.

Upstream stations:

Downstream station:
Previous Day
Next Day
Current Day
    
SHEF ID:       CTSO2     Bird Ck at State Highway 266 nea
STATION TYPE:  

                STAGE  STAGE(2)  RIV-FLOW  WTR-TEMP   DIS-OXY        PH   CONDUCT  BAT-LOAD
                   ft        ft       cfs         F      mg/l        su   umho/cm      volt
              Ccp-Rev   Ccp-Rev   Ccp-Rev   Ccp-Rev   Ccp-Rev   Ccp-Rev   Ccp-Rev   Ccp-Rev
(US/Central)
12/07 00:00      3.99      3.92       113     52.00     10.08      7.83       479     12.73
12/07 01:00      3.97      3.92       109     51.55     10.09      7.84       471     12.65
12/07 02:00      3.96      3.89       108     51.21     10.11      7.84       465     12.65
12/07 03:00      3.93      3.87       103     50.95     10.15      7.85       464     12.65
12/07 04:00      3.94      3.86       104     50.81     10.17      7.86       463     12.57
12/07 05:00      3.93      3.86       103     50.70     10.23      7.86       464     12.57
12/07 06:00      3.91      3.86        99     50.70     10.27      7.86       468     12.57
12/07 07:00      3.89      3.86        96     50.74     10.27      7.85       474     12.49
12/07 08:00      3.91      3.82        99     50.88     10.32      7.86       482     12.49
12/07 09:00      3.91      3.79        99     51.12     10.37      7.85       491     13.68
12/07 10:00      3.86      3.77        91     51.28     10.40      7.86       495     14.08
12/07 11:00      3.91      3.80        99     51.26     10.40      7.86       500     14.56
12/07 12:00      3.92      3.84       101     51.15     10.50      7.88       500     14.16
12/07 13:00      3.94      3.88       104     50.99     10.62      7.90       497     14.08
12/07 14:00      3.95      3.91       106     50.83     10.78      7.93       495     13.53
12/07 15:00      3.95      3.88       106     50.74     10.83      7.94       494     13.05
12/07 16:00      3.93      3.83       103     50.67     10.84      7.95       496     12.97
12/07 17:00      3.94      3.74       104     50.63     10.84      7.95       498     12.89
12/07 18:00      3.95      3.79       106     50.65     10.84      7.94       504     12.81
12/07 19:00      3.92      3.85       101     50.54     10.82      7.94       503     12.81
12/07 20:00      3.94      3.89       104     50.40     10.76      7.94       511     12.73
12/07 21:00      3.96      3.88       108     50.16     10.68      7.93       517     12.73
12/07 22:00      3.93      3.86       103     49.91     10.62      7.93       510     12.73
12/07 23:00      3.93      3.83       103     49.60     10.58      7.92       508     12.73